createdAt,value
2023-05-01T00:07:24.399Z,3.33
2023-05-01T00:22:26.157Z,1.87
2023-05-01T00:37:27.843Z,1.80
2023-05-01T00:52:29.732Z,2.53
2023-05-01T01:07:48.097Z,2.03
2023-05-01T01:23:34.904Z,2.17
2023-05-01T01:38:43.904Z,2.13
2023-05-01T01:53:50.829Z,2.40
2023-05-01T02:08:54.067Z,2.57
2023-05-01T02:23:56.342Z,1.90
2023-05-01T02:38:58.168Z,2.10
2023-05-01T02:54:00.499Z,2.20
2023-05-01T03:09:02.128Z,2.03
2023-05-01T03:24:03.909Z,2.03
2023-05-01T03:39:05.597Z,2.33
2023-05-01T03:54:07.268Z,1.80
2023-05-01T04:09:08.998Z,2.37
2023-05-01T04:24:10.677Z,2.57
2023-05-01T04:39:12.480Z,2.77
2023-05-01T04:54:14.234Z,2.10
2023-05-01T05:09:16.954Z,2.40
2023-05-01T05:24:20.366Z,2.57
2023-05-01T05:39:22.523Z,1.90
2023-05-01T05:54:24.262Z,2.40
2023-05-01T06:09:26.003Z,2.17
2023-05-01T06:24:27.913Z,2.10
2023-05-01T06:39:29.570Z,2.90
2023-05-01T06:54:31.459Z,2.97
2023-05-01T07:09:33.156Z,2.40
2023-05-01T07:24:34.898Z,2.47
2023-05-01T07:39:36.606Z,2.83
2023-05-01T07:54:38.333Z,2.30
2023-05-01T08:09:40.047Z,2.20
2023-05-01T08:24:41.722Z,2.70
2023-05-01T08:39:43.399Z,2.40
2023-05-01T08:54:46.164Z,2.77
2023-05-01T09:09:47.997Z,2.43
2023-05-01T09:24:52.655Z,2.43
2023-05-01T09:40:14.364Z,2.87
2023-05-01T09:55:17.748Z,2.37
2023-05-01T10:10:20.880Z,2.47
2023-05-01T10:25:23.583Z,2.37
2023-05-01T10:40:40.665Z,2.00
2023-05-01T10:55:44.124Z,2.10
2023-05-01T11:10:45.851Z,2.80
2023-05-01T11:25:47.995Z,1.80
2023-05-01T11:40:55.152Z,2.53
2023-05-01T11:55:56.843Z,2.27
2023-05-01T12:10:58.763Z,2.00
2023-05-01T12:26:01.056Z,1.70
2023-05-01T12:41:02.903Z,2.10
2023-05-01T12:56:04.869Z,1.90
2023-05-01T13:11:12.208Z,2.10
2023-05-01T13:26:14.062Z,2.00
2023-05-01T13:41:20.427Z,1.73
2023-05-01T13:56:22.338Z,1.70
2023-05-01T14:11:24.099Z,1.60
2023-05-01T14:26:25.883Z,1.57
2023-05-01T14:41:28.061Z,1.67
2023-05-01T14:56:29.780Z,1.40
2023-05-01T15:11:31.767Z,1.50
2023-05-01T15:26:33.430Z,1.60
2023-05-01T15:41:35.260Z,1.57
2023-05-01T15:56:37.914Z,1.63
2023-05-01T16:11:39.704Z,1.40
2023-05-01T16:26:41.556Z,2.00
2023-05-01T16:41:45.847Z,1.40
2023-05-01T16:56:47.567Z,1.40
2023-05-01T17:11:49.272Z,1.50
2023-05-01T17:26:50.986Z,1.60
2023-05-01T17:41:52.628Z,1.47
2023-05-01T17:56:54.437Z,1.57
2023-05-01T18:11:56.070Z,1.30
2023-05-01T18:26:57.715Z,1.20
2023-05-01T18:41:59.395Z,1.50
2023-05-01T18:57:01.244Z,1.20
2023-05-01T19:12:02.890Z,1.20
2023-05-01T19:27:04.607Z,1.40
2023-05-01T19:42:06.307Z,1.33
2023-05-01T19:57:08.145Z,1.20
2023-05-01T20:12:09.792Z,1.43
2023-05-01T20:27:11.488Z,1.37
2023-05-01T20:42:13.196Z,1.23
2023-05-01T20:57:15.738Z,1.37
2023-05-01T21:12:17.552Z,1.30
2023-05-01T21:27:19.217Z,1.50
2023-05-01T21:42:21.102Z,1.30
2023-05-01T21:57:22.801Z,1.37
2023-05-01T22:12:24.493Z,1.07
2023-05-01T22:27:26.186Z,1.40
2023-05-01T22:42:27.828Z,1.17
2023-05-01T22:57:29.581Z,1.10
2023-05-01T23:12:31.214Z,1.40
2023-05-01T23:27:35.699Z,1.20
2023-05-01T23:42:38.688Z,1.20
2023-05-01T23:57:40.315Z,1.23
